^^
Station Historical Data
Daily Summary for January 30, 2018 Units:  English    Metric   Both
« Previous Day
Next Day »
Daily Weekly Monthly Yearly Custom
  High: Low: Average:
Temperature: TemperatureF °F 45.0 °F 53.7 °F
Dew Point: DewpointF °F 29.3 °F 36.2 °F
Humidity: Humidity% 28% 53%
Wind Speed: WindSpeedMPHmph 0.0mph 0mph
Wind Gust: WindSpeedGustMPHmph - -
Wind- - North
Pressure: PressureIn in 30.10 in -
Precipitation: 0.00 in    
Historical Graphs
 
 
Tabular Data for January 30, 2018
Time Temperature Dew Point Pressure Wind Wind Speed Wind Gust Humidity Rainfall Rate (Hourly) solar Conditions
TemperatureF °F DewpointF °F PressureIn in Calm     Humidity% HourlyPrecipIn in SolarRadiationWatts/m^2 W/m2 Conditions
00:00 57.0 °F 53.8 °F 30.10 in Calm     89% 0.00 in 0.0 W/m2 RA
00:05 57.0 °F 53.8 °F 30.11 in Calm     89% 0.00 in 0.0 W/m2 RA
00:10 57.0 °F 53.8 °F 30.11 in Calm     89% 0.00 in 0.0 W/m2 BKN
00:15 57.0 °F 53.8 °F 30.11 in Calm     89% 0.00 in 0.0 W/m2 BKN
00:20 57.0 °F 53.8 °F 30.11 in Calm     89% 0.00 in 0.0 W/m2 BKN
00:25 57.0 °F 53.8 °F 30.11 in Calm     89% 0.00 in 0.0 W/m2 BKN
00:30 57.0 °F 53.8 °F 30.11 in Calm     89% 0.00 in 0.0 W/m2 BKN
00:35 57.0 °F 53.8 °F 30.11 in Calm     89% 0.00 in 0.0 W/m2 BKN
00:40 57.0 °F 53.8 °F 30.11 in Calm     89% 0.00 in 0.0 W/m2 BKN
00:45 57.0 °F 53.8 °F 30.11 in Calm     89% 0.00 in 0.0 W/m2 BKN
00:50 57.0 °F 53.8 °F 30.11 in Calm     89% 0.00 in 0.0 W/m2 BKN
00:55 57.0 °F 53.8 °F 30.11 in Calm     89% 0.00 in 0.0 W/m2 BKN
01:00 57.0 °F 53.8 °F 30.11 in Calm     89% 0.00 in 0.0 W/m2 BKN
01:05 57.9 °F 50.8 °F 30.11 in Calm     77% 0.00 in 0.0 W/m2 OVC
01:10 57.9 °F 50.8 °F 30.11 in Calm     77% 0.00 in 0.0 W/m2 OVC
01:15 57.9 °F 50.8 °F 30.11 in Calm     77% 0.00 in 0.0 W/m2 OVC
01:20 57.9 °F 50.8 °F 30.11 in Calm     77% 0.00 in 0.0 W/m2 OVC
01:25 57.9 °F 50.8 °F 30.11 in Calm     77% 0.00 in 0.0 W/m2 OVC
01:30 57.9 °F 50.8 °F 30.11 in Calm     77% 0.00 in 0.0 W/m2 OVC
01:35 57.9 °F 50.8 °F 30.11 in Calm     77% 0.00 in 0.0 W/m2 OVC
01:40 57.9 °F 50.8 °F 30.11 in Calm     77% 0.00 in 0.0 W/m2 OVC
01:45 57.9 °F 50.8 °F 30.11 in Calm     77% 0.00 in 0.0 W/m2 OVC
01:50 57.9 °F 50.8 °F 30.11 in Calm     77% 0.00 in 0.0 W/m2 OVC
01:55 57.9 °F 50.8 °F 30.11 in Calm     77% 0.00 in 0.0 W/m2 OVC
02:00 57.9 °F 50.8 °F 30.11 in Calm     77% 0.00 in 0.0 W/m2 OVC
02:05 55.9 °F 44.7 °F 30.12 in Calm     66% 0.00 in 0.0 W/m2 CLR
02:10 55.9 °F 44.7 °F 30.12 in Calm     66% 0.00 in 0.0 W/m2 CLR
02:15 55.9 °F 44.7 °F 30.12 in Calm     66% 0.00 in 0.0 W/m2 CLR
02:20 55.9 °F 44.7 °F 30.12 in Calm     66% 0.00 in 0.0 W/m2 CLR
02:25 55.9 °F 44.7 °F 30.12 in Calm     66% 0.00 in 0.0 W/m2 CLR
02:30 55.9 °F 44.7 °F 30.12 in Calm     66% 0.00 in 0.0 W/m2 CLR
02:35 55.9 °F 44.7 °F 30.12 in Calm     66% 0.00 in 0.0 W/m2 CLR
02:40 55.9 °F 44.7 °F 30.12 in Calm     66% 0.00 in 0.0 W/m2 CLR
02:45 55.9 °F 44.7 °F 30.12 in Calm     66% 0.00 in 0.0 W/m2 CLR
02:50 55.9 °F 44.7 °F 30.12 in Calm     66% 0.00 in 0.0 W/m2 CLR
02:55 55.9 °F 44.7 °F 30.12 in Calm     66% 0.00 in 0.0 W/m2 CLR
03:00 55.9 °F 44.7 °F 30.12 in Calm     66% 0.00 in 0.0 W/m2 CLR
03:05 55.0 °F 39.6 °F 30.12 in Calm     56% 0.00 in 0.0 W/m2 CLR
03:10 55.0 °F 39.6 °F 30.12 in Calm     56% 0.00 in 0.0 W/m2 CLR
03:15 55.0 °F 39.6 °F 30.12 in Calm     56% 0.00 in 0.0 W/m2 CLR
03:20 55.0 °F 39.6 °F 30.12 in Calm     56% 0.00 in 0.0 W/m2 CLR
03:25 55.0 °F 39.6 °F 30.12 in Calm     56% 0.00 in 0.0 W/m2 CLR
03:30 55.0 °F 39.6 °F 30.12 in Calm     56% 0.00 in 0.0 W/m2 CLR
03:35 55.0 °F 39.6 °F 30.12 in Calm     56% 0.00 in 0.0 W/m2 CLR
03:40 55.0 °F 39.6 °F 30.12 in Calm     56% 0.00 in 0.0 W/m2 CLR
03:45 55.0 °F 39.6 °F 30.12 in Calm     56% 0.00 in 0.0 W/m2 CLR
03:50 55.0 °F 39.6 °F 30.12 in Calm     56% 0.00 in 0.0 W/m2 CLR
03:55 55.0 °F 39.6 °F 30.12 in Calm     56% 0.00 in 0.0 W/m2 CLR
04:00 55.0 °F 39.6 °F 30.12 in Calm     56% 0.00 in 0.0 W/m2 CLR
04:05 53.1 °F 36.8 °F 30.13 in Calm     54% 0.00 in 0.0 W/m2 CLR
04:10 53.1 °F 36.8 °F 30.13 in Calm     54% 0.00 in 0.0 W/m2 CLR
04:15 53.1 °F 36.8 °F 30.13 in Calm     54% 0.00 in 0.0 W/m2 CLR
04:20 53.1 °F 36.8 °F 30.13 in Calm     54% 0.00 in 0.0 W/m2 CLR
04:25 53.1 °F 36.8 °F 30.13 in Calm     54% 0.00 in 0.0 W/m2 CLR
04:30 53.1 °F 36.8 °F 30.13 in Calm     54% 0.00 in 0.0 W/m2 CLR
04:35 53.1 °F 36.8 °F 30.13 in Calm     54% 0.00 in 0.0 W/m2 CLR
04:40 53.1 °F 36.8 °F 30.13 in Calm     54% 0.00 in 0.0 W/m2 CLR
04:45 53.1 °F 36.8 °F 30.13 in Calm     54% 0.00 in 0.0 W/m2 CLR
04:50 53.1 °F 36.8 °F 30.13 in Calm     54% 0.00 in 0.0 W/m2 CLR
04:55 53.1 °F 36.8 °F 30.13 in Calm     54% 0.00 in 0.0 W/m2 CLR
05:00 53.1 °F 36.8 °F 30.13 in Calm     54% 0.00 in 0.0 W/m2 CLR
05:05 51.1 °F 35.0 °F 30.13 in Calm     54% 0.00 in 0.0 W/m2 CLR
05:10 51.1 °F 35.0 °F 30.13 in Calm     54% 0.00 in 0.0 W/m2 CLR
05:15 51.1 °F 35.0 °F 30.13 in Calm     54% 0.00 in 0.0 W/m2 CLR
05:20 51.1 °F 35.0 °F 30.13 in Calm     54% 0.00 in 0.0 W/m2 CLR
05:25 51.1 °F 35.0 °F 30.13 in Calm     54% 0.00 in 0.0 W/m2 CLR
05:30 51.1 °F 35.0 °F 30.13 in Calm     54% 0.00 in 0.0 W/m2 CLR
05:35 51.1 °F 35.0 °F 30.13 in Calm     54% 0.00 in 0.0 W/m2 CLR
05:40 51.1 °F 35.0 °F 30.13 in Calm     54% 0.00 in 0.0 W/m2 CLR
05:45 51.1 °F 35.0 °F 30.13 in Calm     54% 0.00 in 0.0 W/m2 CLR
05:50 51.1 °F 35.0 °F 30.13 in Calm     54% 0.00 in 0.0 W/m2 CLR
05:55 51.1 °F 35.0 °F 30.13 in Calm     54% 0.00 in 0.0 W/m2 CLR
06:00 51.1 °F 35.0 °F 30.13 in Calm     54% 0.00 in 0.0 W/m2 CLR
06:05 50.0 °F 33.5 °F 30.15 in Calm     53% 0.00 in 0.0 W/m2 CLR
06:10 50.0 °F 33.5 °F 30.15 in Calm     53% 0.00 in 0.0 W/m2 CLR
06:15 50.0 °F 33.5 °F 30.15 in Calm     53% 0.00 in 0.0 W/m2 CLR
06:20 50.0 °F 33.5 °F 30.15 in Calm     53% 0.00 in 0.0 W/m2 CLR
06:25 50.0 °F 33.5 °F 30.15 in Calm     53% 0.00 in 0.0 W/m2 CLR
06:30 50.0 °F 33.5 °F 30.15 in Calm     53% 0.00 in 0.0 W/m2 CLR
06:35 50.0 °F 33.5 °F 30.15 in Calm     53% 0.00 in 0.0 W/m2 CLR
06:40 50.0 °F 33.5 °F 30.15 in Calm     53% 0.00 in 0.0 W/m2 CLR
06:45 50.0 °F 33.5 °F 30.15 in Calm     53% 0.00 in 0.0 W/m2 CLR
06:50 50.0 °F 33.5 °F 30.15 in Calm     53% 0.00 in 0.0 W/m2 CLR
06:55 50.0 °F 33.5 °F 30.15 in Calm     53% 0.00 in 0.0 W/m2 CLR
07:00 50.0 °F 33.5 °F 30.15 in Calm     53% 0.00 in 0.0 W/m2 CLR
07:05 48.9 °F 33.9 °F 30.17 in Calm     56% 0.00 in 0.0 W/m2 CLR
07:10 48.9 °F 33.9 °F 30.17 in Calm     56% 0.00 in 0.0 W/m2 CLR
07:15 48.9 °F 33.9 °F 30.17 in Calm     56% 0.00 in 0.0 W/m2 CLR
07:20 48.9 °F 33.9 °F 30.17 in Calm     56% 0.00 in 0.0 W/m2 CLR
07:25 48.9 °F 33.9 °F 30.17 in Calm     56% 0.00 in 0.0 W/m2 CLR
07:30 48.9 °F 33.9 °F 30.17 in Calm     56% 0.00 in 0.0 W/m2 CLR
07:35 48.9 °F 33.9 °F 30.17 in Calm     56% 0.00 in 0.0 W/m2 CLR
07:40 48.9 °F 33.9 °F 30.17 in Calm     56% 0.00 in 0.0 W/m2 CLR
07:45 48.9 °F 33.9 °F 30.17 in Calm     56% 0.00 in 0.0 W/m2 CLR
07:50 48.9 °F 33.9 °F 30.17 in Calm     56% 0.00 in 0.0 W/m2 CLR
07:55 48.9 °F 33.9 °F 30.17 in Calm     56% 0.00 in 0.0 W/m2 CLR
08:00 48.9 °F 33.9 °F 30.17 in Calm     56% 0.00 in 0.0 W/m2 CLR
08:05 48.9 °F 33.0 °F 30.19 in Calm     54% 0.00 in 0.0 W/m2 CLR
08:10 48.9 °F 33.0 °F 30.19 in Calm     54% 0.00 in 0.0 W/m2 CLR
08:15 48.9 °F 33.0 °F 30.19 in Calm     54% 0.00 in 0.0 W/m2 CLR
08:20 48.9 °F 33.0 °F 30.19 in Calm     54% 0.00 in 0.0 W/m2 CLR
08:25 48.9 °F 33.0 °F 30.19 in Calm     54% 0.00 in 0.0 W/m2 CLR
08:30 48.9 °F 33.0 °F 30.19 in Calm     54% 0.00 in 0.0 W/m2 CLR
08:35 48.9 °F 33.0 °F 30.19 in Calm     54% 0.00 in 0.0 W/m2 CLR
08:40 48.9 °F 33.0 °F 30.19 in Calm     54% 0.00 in 0.0 W/m2 CLR
08:45 48.9 °F 33.0 °F 30.19 in Calm     54% 0.00 in 0.0 W/m2 CLR
08:50 48.9 °F 33.0 °F 30.19 in Calm     54% 0.00 in 0.0 W/m2 CLR
08:55 48.9 °F 33.0 °F 30.19 in Calm     54% 0.00 in 0.0 W/m2 CLR
09:00 48.9 °F 33.0 °F 30.19 in Calm     54% 0.00 in 0.0 W/m2 CLR
09:05 51.1 °F 33.6 °F 30.23 in Calm     51% 0.00 in 0.0 W/m2 CLR
09:10 51.1 °F 33.6 °F 30.23 in Calm     51% 0.00 in 0.0 W/m2 CLR
09:15 51.1 °F 33.6 °F 30.23 in Calm     51% 0.00 in 0.0 W/m2 CLR
09:20 51.1 °F 33.6 °F 30.23 in Calm     51% 0.00 in 0.0 W/m2 CLR
09:25 51.1 °F 33.6 °F 30.23 in Calm     51% 0.00 in 0.0 W/m2 CLR
09:30 51.1 °F 33.6 °F 30.23 in Calm     51% 0.00 in 0.0 W/m2 CLR
09:35 51.1 °F 33.6 °F 30.23 in Calm     51% 0.00 in 0.0 W/m2 CLR
09:40 51.1 °F 33.6 °F 30.23 in Calm     51% 0.00 in 0.0 W/m2 CLR
09:45 51.1 °F 33.6 °F 30.23 in Calm     51% 0.00 in 0.0 W/m2 CLR
09:50 51.1 °F 33.6 °F 30.23 in Calm     51% 0.00 in 0.0 W/m2 CLR
09:55 51.1 °F 33.6 °F 30.23 in Calm     51% 0.00 in 0.0 W/m2 CLR
10:00 51.1 °F 33.6 °F 30.23 in Calm     51% 0.00 in 0.0 W/m2 CLR
10:05 53.1 °F 32.8 °F 30.26 in Calm     46% 0.00 in 0.0 W/m2 CLR
10:10 53.1 °F 32.8 °F 30.26 in Calm     46% 0.00 in 0.0 W/m2 CLR
10:15 53.1 °F 32.8 °F 30.26 in Calm     46% 0.00 in 0.0 W/m2 CLR
10:20 53.1 °F 32.8 °F 30.26 in Calm     46% 0.00 in 0.0 W/m2 CLR
10:25 53.1 °F 32.8 °F 30.26 in Calm     46% 0.00 in 0.0 W/m2 CLR
10:30 53.1 °F 32.8 °F 30.26 in Calm     46% 0.00 in 0.0 W/m2 CLR
10:35 53.1 °F 32.8 °F 30.26 in Calm     46% 0.00 in 0.0 W/m2 CLR
10:40 53.1 °F 32.8 °F 30.26 in Calm     46% 0.00 in 0.0 W/m2 CLR
10:45 53.1 °F 32.8 °F 30.26 in Calm     46% 0.00 in 0.0 W/m2 CLR
10:50 53.1 °F 32.8 °F 30.26 in Calm     46% 0.00 in 0.0 W/m2 CLR
10:55 53.1 °F 32.8 °F 30.26 in Calm     46% 0.00 in 0.0 W/m2 CLR
11:00 53.1 °F 32.8 °F 30.26 in Calm     46% 0.00 in 0.0 W/m2 CLR
11:05 55.0 °F 34.6 °F 30.26 in Calm     46% 0.00 in 0.0 W/m2 CLR
11:10 55.0 °F 34.6 °F 30.26 in Calm     46% 0.00 in 0.0 W/m2 CLR
11:15 55.0 °F 34.6 °F 30.26 in Calm     46% 0.00 in 0.0 W/m2 CLR
11:20 55.0 °F 34.6 °F 30.26 in Calm     46% 0.00 in 0.0 W/m2 CLR
11:25 55.0 °F 34.6 °F 30.26 in Calm     46% 0.00 in 0.0 W/m2 CLR
11:30 55.0 °F 34.6 °F 30.26 in Calm     46% 0.00 in 0.0 W/m2 CLR
11:35 55.0 °F 34.6 °F 30.26 in Calm     46% 0.00 in 0.0 W/m2 CLR
11:40 55.0 °F 34.6 °F 30.26 in Calm     46% 0.00 in 0.0 W/m2 CLR
11:45 55.0 °F 34.6 °F 30.26 in Calm     46% 0.00 in 0.0 W/m2 CLR
11:50 55.0 °F 34.6 °F 30.26 in Calm     46% 0.00 in 0.0 W/m2 CLR
11:55 55.0 °F 34.6 °F 30.26 in Calm     46% 0.00 in 0.0 W/m2 CLR
12:00 55.0 °F 34.6 °F 30.26 in Calm     46% 0.00 in 0.0 W/m2 CLR
12:05 60.1 °F 33.7 °F 30.25 in Calm     37% 0.00 in 0.0 W/m2 CLR
12:10 60.1 °F 33.7 °F 30.25 in Calm     37% 0.00 in 0.0 W/m2 CLR
12:15 60.1 °F 33.7 °F 30.25 in Calm     37% 0.00 in 0.0 W/m2 CLR
12:20 60.1 °F 33.7 °F 30.25 in Calm     37% 0.00 in 0.0 W/m2 CLR
12:25 60.1 °F 33.7 °F 30.25 in Calm     37% 0.00 in 0.0 W/m2 CLR
12:30 60.1 °F 33.7 °F 30.25 in Calm     37% 0.00 in 0.0 W/m2 CLR
12:35 60.1 °F 33.7 °F 30.25 in Calm     37% 0.00 in 0.0 W/m2 CLR
12:40 60.1 °F 33.7 °F 30.25 in Calm     37% 0.00 in 0.0 W/m2 CLR
12:45 60.1 °F 33.7 °F 30.25 in Calm     37% 0.00 in 0.0 W/m2 CLR
12:50 60.1 °F 33.7 °F 30.25 in Calm     37% 0.00 in 0.0 W/m2 CLR
12:55 60.1 °F 33.7 °F 30.25 in Calm     37% 0.00 in 0.0 W/m2 CLR
13:00 60.1 °F 33.7 °F 30.25 in Calm     37% 0.00 in 0.0 W/m2 CLR
13:05 62.1 °F 31.8 °F 30.22 in Calm     32% 0.00 in 0.0 W/m2 CLR
13:06 62.1 °F 31.8 °F 30.22 in Calm     32% 0.00 in 0.0 W/m2 CLR
13:11 62.1 °F 31.8 °F 30.22 in Calm     32% 0.00 in 0.0 W/m2 CLR
13:16 62.1 °F 31.8 °F 30.22 in Calm     32% 0.00 in 0.0 W/m2 CLR
13:21 62.1 °F 31.8 °F 30.22 in Calm     32% 0.00 in 0.0 W/m2 CLR
13:26 62.1 °F 31.8 °F 30.22 in Calm     32% 0.00 in 0.0 W/m2 CLR
13:31 62.1 °F 31.8 °F 30.22 in Calm     32% 0.00 in 0.0 W/m2 CLR
13:36 62.1 °F 31.8 °F 30.22 in Calm     32% 0.00 in 0.0 W/m2 CLR
13:41 62.1 °F 31.8 °F 30.22 in Calm     32% 0.00 in 0.0 W/m2 CLR
13:46 62.1 °F 31.8 °F 30.22 in Calm     32% 0.00 in 0.0 W/m2 CLR
13:51 62.1 °F 31.8 °F 30.22 in Calm     32% 0.00 in 0.0 W/m2 CLR
13:56 62.1 °F 31.8 °F 30.22 in Calm     32% 0.00 in 0.0 W/m2 CLR
14:01 64.0 °F 30.2 °F 30.19 in Calm     28% 0.00 in 0.0 W/m2 CLR
14:06 64.0 °F 30.2 °F 30.19 in Calm     28% 0.00 in 0.0 W/m2 CLR
14:11 64.0 °F 30.2 °F 30.19 in Calm     28% 0.00 in 0.0 W/m2 CLR
14:16 64.0 °F 30.2 °F 30.19 in Calm     28% 0.00 in 0.0 W/m2 CLR
14:21 64.0 °F 30.2 °F 30.19 in Calm     28% 0.00 in 0.0 W/m2 CLR
14:26 64.0 °F 30.2 °F 30.19 in Calm     28% 0.00 in 0.0 W/m2 CLR
14:31 64.0 °F 30.2 °F 30.19 in Calm     28% 0.00 in 0.0 W/m2 CLR
14:36 64.0 °F 30.2 °F 30.19 in Calm     28% 0.00 in 0.0 W/m2 CLR
14:41 64.0 °F 30.2 °F 30.19 in Calm     28% 0.00 in 0.0 W/m2 CLR
14:46 64.0 °F 30.2 °F 30.19 in Calm     28% 0.00 in 0.0 W/m2 CLR
14:51 64.0 °F 30.2 °F 30.19 in Calm     28% 0.00 in 0.0 W/m2 CLR
14:56 64.0 °F 30.2 °F 30.19 in Calm     28% 0.00 in 0.0 W/m2 CLR
15:01 63.0 °F 29.3 °F 30.18 in Calm     28% 0.00 in 0.0 W/m2 CLR
15:06 63.0 °F 29.3 °F 30.18 in Calm     28% 0.00 in 0.0 W/m2 CLR
15:11 63.0 °F 29.3 °F 30.18 in Calm     28% 0.00 in 0.0 W/m2 CLR
15:16 63.0 °F 29.3 °F 30.18 in Calm     28% 0.00 in 0.0 W/m2 CLR
15:21 63.0 °F 29.3 °F 30.18 in Calm     28% 0.00 in 0.0 W/m2 CLR
15:26 63.0 °F 29.3 °F 30.18 in Calm     28% 0.00 in 0.0 W/m2 CLR
15:31 63.0 °F 29.3 °F 30.18 in Calm     28% 0.00 in 0.0 W/m2 CLR
15:36 63.0 °F 29.3 °F 30.18 in Calm     28% 0.00 in 0.0 W/m2 CLR
15:41 63.0 °F 29.3 °F 30.18 in Calm     28% 0.00 in 0.0 W/m2 CLR
15:46 63.0 °F 29.3 °F 30.18 in Calm     28% 0.00 in 0.0 W/m2 CLR
15:51 63.0 °F 29.3 °F 30.18 in Calm     28% 0.00 in 0.0 W/m2 CLR
15:56 63.0 °F 29.3 °F 30.18 in Calm     28% 0.00 in 0.0 W/m2 CLR
16:01 60.1 °F 36.9 °F 30.20 in Calm     42% 0.00 in 0.0 W/m2 CLR
16:06 60.1 °F 36.9 °F 30.20 in Calm     42% 0.00 in 0.0 W/m2 CLR
16:12 60.1 °F 36.9 °F 30.20 in Calm     42% 0.00 in 0.0 W/m2 CLR
16:16 60.1 °F 36.9 °F 30.20 in Calm     42% 0.00 in 0.0 W/m2 CLR
16:21 60.1 °F 36.9 °F 30.20 in Calm     42% 0.00 in 0.0 W/m2 CLR
16:26 60.1 °F 36.9 °F 30.20 in Calm     42% 0.00 in 0.0 W/m2 CLR
16:31 60.1 °F 36.9 °F 30.20 in Calm     42% 0.00 in 0.0 W/m2 CLR
16:36 60.1 °F 36.9 °F 30.20 in Calm     42% 0.00 in 0.0 W/m2 CLR
16:41 60.1 °F 36.9 °F 30.20 in Calm     42% 0.00 in 0.0 W/m2 CLR
16:46 60.1 °F 36.9 °F 30.20 in Calm     42% 0.00 in 0.0 W/m2 CLR
16:51 60.1 °F 36.9 °F 30.20 in Calm     42% 0.00 in 0.0 W/m2 CLR
16:56 60.1 °F 36.9 °F 30.20 in Calm     42% 0.00 in 0.0 W/m2 CLR
17:01 57.9 °F 36.7 °F 30.22 in Calm     45% 0.00 in 0.0 W/m2 CLR
17:06 57.9 °F 36.7 °F 30.22 in Calm     45% 0.00 in 0.0 W/m2 CLR
17:12 57.9 °F 36.7 °F 30.22 in Calm     45% 0.00 in 0.0 W/m2 CLR
17:17 57.9 °F 36.7 °F 30.22 in Calm     45% 0.00 in 0.0 W/m2 CLR
17:22 57.9 °F 36.7 °F 30.22 in Calm     45% 0.00 in 0.0 W/m2 CLR
17:27 57.9 °F 36.7 °F 30.22 in Calm     45% 0.00 in 0.0 W/m2 CLR
17:32 57.9 °F 36.7 °F 30.22 in Calm     45% 0.00 in 0.0 W/m2 CLR
17:37 57.9 °F 36.7 °F 30.22 in Calm     45% 0.00 in 0.0 W/m2 CLR
17:42 57.9 °F 36.7 °F 30.22 in Calm     45% 0.00 in 0.0 W/m2 CLR
17:47 57.9 °F 36.7 °F 30.22 in Calm     45% 0.00 in 0.0 W/m2 CLR
17:52 57.9 °F 36.7 °F 30.22 in Calm     45% 0.00 in 0.0 W/m2 CLR
17:57 57.9 °F 36.7 °F 30.22 in Calm     45% 0.00 in 0.0 W/m2 CLR
18:02 53.1 °F 33.9 °F 30.25 in Calm     48% 0.00 in 0.0 W/m2 CLR
18:07 53.1 °F 33.9 °F 30.25 in Calm     48% 0.00 in 0.0 W/m2 CLR
18:12 53.1 °F 33.9 °F 30.25 in Calm     48% 0.00 in 0.0 W/m2 CLR
18:17 53.1 °F 33.9 °F 30.25 in Calm     48% 0.00 in 0.0 W/m2 CLR
18:22 53.1 °F 33.9 °F 30.25 in Calm     48% 0.00 in 0.0 W/m2 CLR
18:27 53.1 °F 33.9 °F 30.25 in Calm     48% 0.00 in 0.0 W/m2 CLR
18:32 53.1 °F 33.9 °F 30.25 in Calm     48% 0.00 in 0.0 W/m2 CLR
18:37 53.1 °F 33.9 °F 30.25 in Calm     48% 0.00 in 0.0 W/m2 CLR
18:42 53.1 °F 33.9 °F 30.25 in Calm     48% 0.00 in 0.0 W/m2 CLR
18:47 53.1 °F 33.9 °F 30.25 in Calm     48% 0.00 in 0.0 W/m2 CLR
18:52 53.1 °F 33.9 °F 30.25 in Calm     48% 0.00 in 0.0 W/m2 CLR
18:57 53.1 °F 33.9 °F 30.25 in Calm     48% 0.00 in 0.0 W/m2 CLR
19:02 50.0 °F 31.6 °F 30.26 in Calm     49% 0.00 in 0.0 W/m2 CLR
19:07 50.0 °F 31.6 °F 30.26 in Calm     49% 0.00 in 0.0 W/m2 CLR
19:12 50.0 °F 31.6 °F 30.26 in Calm     49% 0.00 in 0.0 W/m2 CLR
19:17 50.0 °F 31.6 °F 30.26 in Calm     49% 0.00 in 0.0 W/m2 CLR
19:22 50.0 °F 31.6 °F 30.26 in Calm     49% 0.00 in 0.0 W/m2 CLR
19:27 50.0 °F 31.6 °F 30.26 in Calm     49% 0.00 in 0.0 W/m2 CLR
19:32 50.0 °F 31.6 °F 30.26 in Calm     49% 0.00 in 0.0 W/m2 CLR
19:37 50.0 °F 31.6 °F 30.26 in Calm     49% 0.00 in 0.0 W/m2 CLR
19:42 50.0 °F 31.6 °F 30.26 in Calm     49% 0.00 in 0.0 W/m2 CLR
19:47 50.0 °F 31.6 °F 30.26 in Calm     49% 0.00 in 0.0 W/m2 CLR
19:52 50.0 °F 31.6 °F 30.26 in Calm     49% 0.00 in 0.0 W/m2 CLR
19:57 50.0 °F 31.6 °F 30.26 in Calm     49% 0.00 in 0.0 W/m2 CLR
20:02 48.0 °F 34.8 °F 30.28 in Calm     60% 0.00 in 0.0 W/m2 CLR
20:07 48.0 °F 34.8 °F 30.28 in Calm     60% 0.00 in 0.0 W/m2 CLR
20:12 48.0 °F 34.8 °F 30.28 in Calm     60% 0.00 in 0.0 W/m2 CLR
20:17 48.0 °F 34.8 °F 30.28 in Calm     60% 0.00 in 0.0 W/m2 CLR
20:22 48.0 °F 34.8 °F 30.28 in Calm     60% 0.00 in 0.0 W/m2 CLR
20:27 48.0 °F 34.8 °F 30.28 in Calm     60% 0.00 in 0.0 W/m2 CLR
20:32 48.0 °F 34.8 °F 30.28 in Calm     60% 0.00 in 0.0 W/m2 CLR
20:37 48.0 °F 34.8 °F 30.28 in Calm     60% 0.00 in 0.0 W/m2 CLR
20:42 48.0 °F 34.8 °F 30.28 in Calm     60% 0.00 in 0.0 W/m2 CLR
20:47 48.0 °F 34.8 °F 30.28 in Calm     60% 0.00 in 0.0 W/m2 CLR
20:52 48.0 °F 34.8 °F 30.28 in Calm     60% 0.00 in 0.0 W/m2 CLR
20:57 48.0 °F 34.8 °F 30.28 in Calm     60% 0.00 in 0.0 W/m2 CLR
21:02 46.9 °F 36.9 °F 30.31 in Calm     68% 0.00 in 0.0 W/m2 CLR
21:07 46.9 °F 36.9 °F 30.31 in Calm     68% 0.00 in 0.0 W/m2 CLR
21:12 46.9 °F 36.9 °F 30.31 in Calm     68% 0.00 in 0.0 W/m2 CLR
21:17 46.9 °F 36.9 °F 30.31 in Calm     68% 0.00 in 0.0 W/m2 CLR
21:22 46.9 °F 36.9 °F 30.31 in Calm     68% 0.00 in 0.0 W/m2 CLR
21:27 46.9 °F 36.9 °F 30.31 in Calm     68% 0.00 in 0.0 W/m2 CLR
21:32 46.9 °F 36.9 °F 30.31 in Calm     68% 0.00 in 0.0 W/m2 CLR
21:37 46.9 °F 36.9 °F 30.31 in Calm     68% 0.00 in 0.0 W/m2 CLR
21:42 46.9 °F 36.9 °F 30.31 in Calm     68% 0.00 in 0.0 W/m2 CLR
21:47 46.9 °F 36.9 °F 30.31 in Calm     68% 0.00 in 0.0 W/m2 CLR
21:52 46.9 °F 36.9 °F 30.31 in Calm     68% 0.00 in 0.0 W/m2 CLR
21:57 46.9 °F 36.9 °F 30.31 in Calm     68% 0.00 in 0.0 W/m2 CLR
22:02 45.0 °F 36.8 °F 30.33 in Calm     73% 0.00 in 0.0 W/m2 CLR
22:07 45.0 °F 36.8 °F 30.33 in Calm     73% 0.00 in 0.0 W/m2 CLR
22:12 45.0 °F 36.8 °F 30.33 in Calm     73% 0.00 in 0.0 W/m2 CLR
22:17 45.0 °F 36.8 °F 30.33 in Calm     73% 0.00 in 0.0 W/m2 CLR
22:22 45.0 °F 36.8 °F 30.33 in Calm     73% 0.00 in 0.0 W/m2 CLR
22:27 45.0 °F 36.8 °F 30.33 in Calm     73% 0.00 in 0.0 W/m2 CLR
22:32 45.0 °F 36.8 °F 30.33 in Calm     73% 0.00 in 0.0 W/m2 CLR
22:37 45.0 °F 36.8 °F 30.33 in Calm     73% 0.00 in 0.0 W/m2 CLR
22:42 45.0 °F 36.8 °F 30.33 in Calm     73% 0.00 in 0.0 W/m2 CLR
22:47 45.0 °F 36.8 °F 30.33 in Calm     73% 0.00 in 0.0 W/m2 CLR
22:52 45.0 °F 36.8 °F 30.33 in Calm     73% 0.00 in 0.0 W/m2 CLR
22:57 45.0 °F 36.8 °F 30.33 in Calm     73% 0.00 in 0.0 W/m2 CLR
23:02 45.0 °F 35.8 °F 30.34 in Calm     70% 0.00 in 0.0 W/m2 CLR
23:07 45.0 °F 35.8 °F 30.34 in Calm     70% 0.00 in 0.0 W/m2 CLR
23:12 45.0 °F 35.8 °F 30.34 in Calm     70% 0.00 in 0.0 W/m2 CLR
23:17 45.0 °F 35.8 °F 30.34 in Calm     70% 0.00 in 0.0 W/m2 CLR
23:22 45.0 °F 35.8 °F 30.34 in Calm     70% 0.00 in 0.0 W/m2 CLR
23:27 45.0 °F 35.8 °F 30.34 in Calm     70% 0.00 in 0.0 W/m2 CLR
23:32 45.0 °F 35.8 °F 30.34 in Calm     70% 0.00 in 0.0 W/m2 CLR
23:37 45.0 °F 35.8 °F 30.34 in Calm     70% 0.00 in 0.0 W/m2 CLR
23:42 45.0 °F 35.8 °F 30.34 in Calm     70% 0.00 in 0.0 W/m2 CLR
23:47 45.0 °F 35.8 °F 30.34 in Calm     70% 0.00 in 0.0 W/m2 CLR
23:52 45.0 °F 35.8 °F 30.34 in Calm     70% 0.00 in 0.0 W/m2 CLR
23:57 45.0 °F 35.8 °F 30.34 in Calm     70% 0.00 in 0.0 W/m2 CLR
Lake Mary, FL, USA
Compliments of Weather Underground - 1.75 mb